Valiant — NA35 — position and weather

sailwx.info

Track history (hours):
 
Tides and Currents Weather Stations Pressure Air Temp Water Temp Dewpoint Dewpoint Depression Visibility Wind Speed Wind Dir Waves Ship Positions

Valiant

Last reported at 2015-May-17 14:15 UTC. Time now 2015-May-25 19:39 UTC.
Position N 39°28' W 075°58'.
Warning: this ship's position is 8 days out of date.

Length 14 m.

Type: Sailing vessel. MMSI: 369970076.

Date/timePositionNaut miles runAvg speedWind from/ knotsBaromVisibWave heightAir tempDewpointWater temp
2015-May-17 14:15N 39°28' W 075°58'5 6.6
2015-May-17 13:32N 39°31' W 075°54'6 5.7
2015-May-17 12:31N 39°32' W 075°46'5 5.5
2015-May-17 11:33N 39°33' W 075°39'5 4.8
2015-May-17 10:33N 39°33' W 075°33'6 5.6
2015-May-17 09:33N 39°28' W 075°34'5 5.2
2015-May-17 08:33N 39°24' W 075°29'5 5.2
2015-May-17 07:33N 39°20' W 075°25'5 5.0
2015-May-17 06:33N 39°16' W 075°20'5 4.8
2015-May-17 05:31N 39°12' W 075°17'5 5.2
2015-May-17 04:33N 39°08' W 075°13'18 6.1
2015-May-17 01:33N 38°51' W 075°03'7 6.4
2015-May-17 00:32N 38°45' W 075°01'2 2.0
2015-May-16 23:33N 38°43' W 075°01'5 4.8
2015-May-16 22:32N 38°39' W 074°58'  
Track history (hours):
 
Tides and Currents Weather Stations Pressure Air Temp Water Temp Dewpoint Dewpoint Depression Visibility Wind Speed Wind Dir Waves Ship Positions

Valiant

Last reported at 2015-May-17 14:15 UTC. Time now 2015-May-25 19:39 UTC.
Position N 39°28' W 075°58'.
Warning: this ship's position is 8 days out of date.

Length 14 m.

Type: Sailing vessel. MMSI: 369970076.

Date/timePositionNaut miles runAvg speedWind from/ knotsBaromVisibWave heightAir tempDewpointWater temp
2015-May-17 14:15N 39°28' W 075°58'5 6.6
2015-May-17 13:32N 39°31' W 075°54'6 5.7
2015-May-17 12:31N 39°32' W 075°46'5 5.5
2015-May-17 11:33N 39°33' W 075°39'5 4.8
2015-May-17 10:33N 39°33' W 075°33'6 5.6
2015-May-17 09:33N 39°28' W 075°34'5 5.2
2015-May-17 08:33N 39°24' W 075°29'5 5.2
2015-May-17 07:33N 39°20' W 075°25'5 5.0
2015-May-17 06:33N 39°16' W 075°20'5 4.8
2015-May-17 05:31N 39°12' W 075°17'5 5.2
2015-May-17 04:33N 39°08' W 075°13'18 6.1
2015-May-17 01:33N 38°51' W 075°03'7 6.4
2015-May-17 00:32N 38°45' W 075°01'2 2.0
2015-May-16 23:33N 38°43' W 075°01'5 4.8
2015-May-16 22:32N 38°39' W 074°58'  

Dump ship's entire track history